createdAt,value
2018-04-10T00:01:05.664Z,23.76
2018-04-10T00:02:14.547Z,23.7
2018-04-10T00:03:23.690Z,23.7
2018-04-10T00:04:32.829Z,23.84
2018-04-10T00:05:41.981Z,23.76
2018-04-10T00:06:50.931Z,23.69
2018-04-10T00:08:00.344Z,23.7
2018-04-10T00:09:09.244Z,23.73
2018-04-10T00:10:18.387Z,23.72
2018-04-10T00:11:27.533Z,23.76
2018-04-10T00:12:36.683Z,23.75
2018-04-10T00:13:46.090Z,23.83
2018-04-10T00:14:55.281Z,23.75
2018-04-10T00:16:04.199Z,23.66
2018-04-10T00:17:13.093Z,23.78
2018-04-10T00:18:21.982Z,23.69
2018-04-10T00:19:30.612Z,23.66
2018-04-10T00:20:39.761Z,23.76
2018-04-10T00:21:48.691Z,23.65
2018-04-10T00:22:58.377Z,23.65
2018-04-10T00:24:07.272Z,23.73
2018-04-10T00:25:16.672Z,23.76
2018-04-10T00:26:26.330Z,23.66
2018-04-10T00:27:35.508Z,23.78
2018-04-10T00:28:44.673Z,23.63
2018-04-10T00:29:53.820Z,23.73
2018-04-10T00:31:03.214Z,23.7
2018-04-10T00:32:12.356Z,23.75
2018-04-10T00:33:21.259Z,23.68
2018-04-10T00:34:30.428Z,23.79
2018-04-10T00:35:39.853Z,23.72
2018-04-10T00:36:49.274Z,23.69
2018-04-10T00:37:59.252Z,23.63
2018-04-10T00:39:08.141Z,23.73
2018-04-10T00:40:17.308Z,23.76
2018-04-10T00:41:26.721Z,23.72
2018-04-10T00:42:35.891Z,23.6
2018-04-10T00:43:44.783Z,23.7
2018-04-10T00:44:54.196Z,23.73
2018-04-10T00:46:03.109Z,23.75
2018-04-10T00:47:12.004Z,23.73
2018-04-10T00:48:20.887Z,23.73
2018-04-10T00:49:29.542Z,23.7
2018-04-10T00:50:38.962Z,23.73
2018-04-10T00:51:47.851Z,23.73
2018-04-10T00:52:56.518Z,23.66
2018-04-10T00:54:05.744Z,23.72
2018-04-10T00:55:14.706Z,23.75
2018-04-10T00:56:23.335Z,23.7
2018-04-10T00:57:31.985Z,23.76
2018-04-10T00:58:40.618Z,23.68
2018-04-10T00:59:50.074Z,23.69
2018-04-10T01:00:59.236Z,23.68
2018-04-10T01:02:07.939Z,23.7
2018-04-10T01:03:17.083Z,23.7
2018-04-10T01:04:26.501Z,23.72
2018-04-10T01:05:35.661Z,23.72
2018-04-10T01:06:44.578Z,23.75
2018-04-10T01:07:53.524Z,23.68
2018-04-10T01:09:02.437Z,23.73
2018-04-10T01:10:11.354Z,23.7
2018-04-10T01:11:20.503Z,23.7
2018-04-10T01:12:29.417Z,23.75
2018-04-10T01:13:39.112Z,23.69
2018-04-10T01:14:48.509Z,23.79
2018-04-10T01:15:57.947Z,23.76
2018-04-10T01:17:06.825Z,23.79
2018-04-10T01:18:15.766Z,23.73
2018-04-10T01:19:24.920Z,23.72
2018-04-10T01:20:34.105Z,23.7
2018-04-10T01:21:43.263Z,23.76
2018-04-10T01:22:52.164Z,23.75
2018-04-10T01:24:01.328Z,23.66
2018-04-10T01:25:10.225Z,23.66
2018-04-10T01:26:19.632Z,23.73
2018-04-10T01:27:28.806Z,23.7
2018-04-10T01:28:37.699Z,23.63
2018-04-10T01:29:46.906Z,23.66
2018-04-10T01:30:55.799Z,23.75
2018-04-10T01:32:04.984Z,23.72
2018-04-10T01:33:14.142Z,23.75
2018-04-10T01:34:23.039Z,23.72
2018-04-10T01:35:32.186Z,23.7
2018-04-10T01:36:41.324Z,23.63
2018-04-10T01:37:49.988Z,23.76
2018-04-10T01:38:59.138Z,23.7
2018-04-10T01:40:08.287Z,23.72
2018-04-10T01:41:17.204Z,23.63
2018-04-10T01:42:26.113Z,23.75
2018-04-10T01:43:34.751Z,23.65
2018-04-10T01:44:43.650Z,23.65
2018-04-10T01:45:52.798Z,23.63
2018-04-10T01:47:01.707Z,23.7
2018-04-10T01:48:10.885Z,23.7
2018-04-10T01:49:20.296Z,23.63
2018-04-10T01:50:29.436Z,23.68
2018-04-10T01:51:38.074Z,23.7
2018-04-10T01:52:46.977Z,23.63
2018-04-10T01:53:55.905Z,23.66
2018-04-10T01:55:04.548Z,23.7
2018-04-10T01:56:13.197Z,23.72
2018-04-10T01:57:22.343Z,23.68
2018-04-10T01:58:31.496Z,23.66
2018-04-10T01:59:40.393Z,23.65
2018-04-10T02:00:49.283Z,23.75
2018-04-10T02:01:58.437Z,23.63
2018-04-10T02:03:07.338Z,23.63
2018-04-10T02:04:16.483Z,23.69
2018-04-10T02:05:25.384Z,23.63
2018-04-10T02:06:34.529Z,23.7
2018-04-10T02:07:43.435Z,23.63
2018-04-10T02:08:52.833Z,23.66
2018-04-10T02:10:02.287Z,23.65
2018-04-10T02:11:11.206Z,23.69
2018-04-10T02:12:20.343Z,23.66
2018-04-10T02:13:29.275Z,23.63
2018-04-10T02:14:38.451Z,23.66
2018-04-10T02:15:47.136Z,23.65
2018-04-10T02:16:56.541Z,23.66
2018-04-10T02:18:05.460Z,23.72
2018-04-10T02:19:14.369Z,23.65
2018-04-10T02:20:23.513Z,23.65
2018-04-10T02:21:32.664Z,23.68
2018-04-10T02:22:41.806Z,23.68
2018-04-10T02:23:50.975Z,23.68
2018-04-10T02:25:00.130Z,23.7
2018-04-10T02:26:08.825Z,23.66
2018-04-10T02:27:17.980Z,23.72
2018-04-10T02:28:27.158Z,23.69
2018-04-10T02:29:36.556Z,23.61
2018-04-10T02:30:45.722Z,23.68
2018-04-10T02:31:54.921Z,23.63
2018-04-10T02:33:03.811Z,23.7
2018-04-10T02:34:13.478Z,23.57
2018-04-10T02:35:22.636Z,23.61
2018-04-10T02:36:32.578Z,23.63
2018-04-10T02:37:42.245Z,23.65
2018-04-10T02:38:51.658Z,23.66
2018-04-10T02:40:01.068Z,23.6
2018-04-10T02:41:10.499Z,23.63
2018-04-10T02:42:19.677Z,23.63
2018-04-10T02:43:29.074Z,23.63
2018-04-10T02:44:38.239Z,23.65
2018-04-10T02:45:47.664Z,23.66
2018-04-10T02:46:56.574Z,23.63
2018-04-10T02:48:05.737Z,23.61
2018-04-10T02:49:14.658Z,23.61
2018-04-10T02:50:24.589Z,23.66
2018-04-10T02:51:33.742Z,23.6
2018-04-10T02:52:43.149Z,23.63
2018-04-10T02:53:52.307Z,23.61
2018-04-10T02:55:01.453Z,23.63
2018-04-10T02:56:10.596Z,23.63
2018-04-10T02:57:19.501Z,23.63
2018-04-10T02:58:28.140Z,23.63
2018-04-10T02:59:37.022Z,23.63
2018-04-10T03:00:45.940Z,23.6
2018-04-10T03:01:55.350Z,23.57
2018-04-10T03:03:04.493Z,23.6
2018-04-10T03:04:13.912Z,23.58
2018-04-10T03:05:22.810Z,23.58
2018-04-10T03:06:31.710Z,23.68
2018-04-10T03:07:41.117Z,23.63
2018-04-10T03:08:50.274Z,23.63
2018-04-10T03:09:59.419Z,23.61
2018-04-10T03:11:08.562Z,23.66
2018-04-10T03:12:17.724Z,23.65
2018-04-10T03:13:26.621Z,23.58
2018-04-10T03:14:35.782Z,23.68
2018-04-10T03:15:44.944Z,23.55
2018-04-10T03:16:54.112Z,23.58
2018-04-10T03:18:03.035Z,23.61
2018-04-10T03:19:12.208Z,23.61
2018-04-10T03:20:21.099Z,23.68
2018-04-10T03:21:30.253Z,23.63
2018-04-10T03:22:39.409Z,23.63
2018-04-10T03:23:49.060Z,23.61
2018-04-10T03:24:58.750Z,23.65
2018-04-10T03:26:08.155Z,23.69
2018-04-10T03:27:17.560Z,23.68
2018-04-10T03:28:26.188Z,23.61
2018-04-10T03:29:35.590Z,23.65
2018-04-10T03:30:44.501Z,23.54
2018-04-10T03:31:53.395Z,23.61
2018-04-10T03:33:02.539Z,23.65
2018-04-10T03:34:11.949Z,23.68
2018-04-10T03:35:21.097Z,23.54
2018-04-10T03:36:30.772Z,23.55
2018-04-10T03:37:39.656Z,23.58
2018-04-10T03:38:48.553Z,23.6
2018-04-10T03:39:58.001Z,23.66
2018-04-10T03:41:07.411Z,23.65
2018-04-10T03:42:16.552Z,23.6
2018-04-10T03:43:25.970Z,23.61
2018-04-10T03:44:35.133Z,23.55
2018-04-10T03:45:44.531Z,23.54
2018-04-10T03:46:53.957Z,23.57
2018-04-10T03:48:02.852Z,23.53
2018-04-10T03:49:11.742Z,23.58
2018-04-10T03:50:20.885Z,23.55
2018-04-10T03:51:30.311Z,23.63
2018-04-10T03:52:39.193Z,23.6
2018-04-10T03:53:47.871Z,23.58
2018-04-10T03:54:57.013Z,23.55
2018-04-10T03:56:06.420Z,23.61
2018-04-10T03:57:15.576Z,23.55
2018-04-10T03:58:24.762Z,23.57
2018-04-10T03:59:33.920Z,23.55
2018-04-10T04:00:43.063Z,23.58
2018-04-10T04:01:51.965Z,23.54
2018-04-10T04:03:01.117Z,23.54
2018-04-10T04:04:10.531Z,23.55
2018-04-10T04:05:19.420Z,23.55
2018-04-10T04:06:28.092Z,23.6
2018-04-10T04:07:37.246Z,23.58
2018-04-10T04:08:46.398Z,23.57
2018-04-10T04:09:55.829Z,23.58
2018-04-10T04:11:04.985Z,23.53
2018-04-10T04:12:14.642Z,23.61
2018-04-10T04:13:23.804Z,23.58
2018-04-10T04:14:32.946Z,23.65
2018-04-10T04:15:42.358Z,23.57
2018-04-10T04:16:51.517Z,23.57
2018-04-10T04:18:01.181Z,23.6
2018-04-10T04:19:10.443Z,23.55
2018-04-10T04:20:19.646Z,23.57
2018-04-10T04:21:29.076Z,23.57
2018-04-10T04:22:38.048Z,23.58
2018-04-10T04:23:47.472Z,23.6
2018-04-10T04:24:56.877Z,23.55
2018-04-10T04:26:06.712Z,23.61
2018-04-10T04:27:15.605Z,23.55
2018-04-10T04:28:24.491Z,23.57
2018-04-10T04:29:33.133Z,23.55
2018-04-10T04:30:42.268Z,23.54
2018-04-10T04:31:51.442Z,23.61
2018-04-10T04:33:00.612Z,23.55
2018-04-10T04:34:09.236Z,23.58
2018-04-10T04:35:17.860Z,23.55
2018-04-10T04:36:26.999Z,23.61
2018-04-10T04:37:35.645Z,23.55
2018-04-10T04:38:44.784Z,23.58
2018-04-10T04:39:54.198Z,23.58
2018-04-10T04:41:03.345Z,23.58
2018-04-10T04:42:13.030Z,23.58
2018-04-10T04:43:22.934Z,23.58
2018-04-10T04:44:31.569Z,23.63
2018-04-10T04:45:40.489Z,23.65
2018-04-10T04:46:49.191Z,23.66
2018-04-10T04:47:58.161Z,23.61
2018-04-10T04:49:07.556Z,23.63
2018-04-10T04:50:16.446Z,23.65
2018-04-10T04:51:25.590Z,23.65
2018-04-10T04:52:35.534Z,23.63
2018-04-10T04:53:44.962Z,23.58
2018-04-10T04:54:54.363Z,23.61
2018-04-10T04:56:03.516Z,23.55
2018-04-10T04:57:12.450Z,23.61
2018-04-10T04:58:21.855Z,23.63
2018-04-10T04:59:30.998Z,23.65
2018-04-10T05:00:40.277Z,23.63
2018-04-10T05:01:49.447Z,23.6
2018-04-10T05:02:58.901Z,23.65
2018-04-10T05:04:08.053Z,23.66
2018-04-10T05:05:17.451Z,23.63
2018-04-10T05:06:26.910Z,23.61
2018-04-10T05:07:35.817Z,23.63
2018-04-10T05:08:45.227Z,23.68
2018-04-10T05:09:54.620Z,23.65
2018-04-10T05:11:03.768Z,23.69
2018-04-10T05:12:12.916Z,23.65
2018-04-10T05:13:21.820Z,23.61
2018-04-10T05:14:30.984Z,23.63
2018-04-10T05:15:39.864Z,23.6
2018-04-10T05:16:49.526Z,23.65
2018-04-10T05:17:58.947Z,23.66
2018-04-10T05:19:08.102Z,23.63
2018-04-10T05:20:16.990Z,23.58
2018-04-10T05:21:26.389Z,23.61
2018-04-10T05:22:35.806Z,23.7
2018-04-10T05:23:44.955Z,23.66
2018-04-10T05:24:54.390Z,23.61
2018-04-10T05:26:03.295Z,23.72
2018-04-10T05:27:12.475Z,23.65
2018-04-10T05:28:21.889Z,23.66
2018-04-10T05:29:31.302Z,23.68
2018-04-10T05:30:40.703Z,23.69
2018-04-10T05:31:49.860Z,23.7
2018-04-10T05:32:59.010Z,23.66
2018-04-10T05:34:08.456Z,23.68
2018-04-10T05:35:17.868Z,23.63
2018-04-10T05:36:27.282Z,23.63
2018-04-10T05:37:36.196Z,23.65
2018-04-10T05:38:45.116Z,23.7
2018-04-10T05:39:54.521Z,23.65
2018-04-10T05:41:03.675Z,23.63
2018-04-10T05:42:12.826Z,23.65
2018-04-10T05:43:21.749Z,23.63
2018-04-10T05:44:31.860Z,23.68
2018-04-10T05:45:41.048Z,23.65
2018-04-10T05:46:50.469Z,23.65
2018-04-10T05:47:59.622Z,23.68
2018-04-10T05:49:08.541Z,23.61
2018-04-10T05:50:17.458Z,23.66
2018-04-10T05:51:26.626Z,23.61
2018-04-10T05:52:35.793Z,23.63
2018-04-10T05:53:45.275Z,23.61
2018-04-10T05:54:54.954Z,23.57
2018-04-10T05:56:04.379Z,23.6
2018-04-10T05:57:14.341Z,23.65
2018-04-10T05:58:23.012Z,23.66
2018-04-10T05:59:32.482Z,23.65
2018-04-10T06:00:41.892Z,23.61
2018-04-10T06:01:50.796Z,23.66
2018-04-10T06:03:00.241Z,23.6
2018-04-10T06:04:09.445Z,23.6
2018-04-10T06:05:18.582Z,23.61
2018-04-10T06:06:28.006Z,23.63
2018-04-10T06:07:37.161Z,23.65
2018-04-10T06:08:46.560Z,23.66
2018-04-10T06:09:55.820Z,23.63
2018-04-10T06:11:04.976Z,23.66
2018-04-10T06:12:14.142Z,23.68
2018-04-10T06:13:23.040Z,23.7
2018-04-10T06:14:31.680Z,23.65
2018-04-10T06:15:40.570Z,23.63
2018-04-10T06:16:49.500Z,23.63
2018-04-10T06:17:58.953Z,23.63
2018-04-10T06:19:07.856Z,23.61
2018-04-10T06:20:17.048Z,23.76
2018-04-10T06:21:26.323Z,23.66
2018-04-10T06:22:35.213Z,23.63
2018-04-10T06:23:44.868Z,23.63
2018-04-10T06:24:54.094Z,23.73
2018-04-10T06:26:03.255Z,23.7
2018-04-10T06:27:11.925Z,23.66
2018-04-10T06:28:21.342Z,23.66
2018-04-10T06:29:30.773Z,23.68
2018-04-10T06:30:40.181Z,23.68
2018-04-10T06:31:49.110Z,23.72
2018-04-10T06:32:58.266Z,23.65
2018-04-10T06:34:07.697Z,23.68
2018-04-10T06:35:16.609Z,23.66
2018-04-10T06:36:25.769Z,23.69
2018-04-10T06:37:34.671Z,23.65
2018-04-10T06:38:44.088Z,23.66
2018-04-10T06:39:53.250Z,23.76
2018-04-10T06:41:02.405Z,23.63
2018-04-10T06:42:11.339Z,23.63
2018-04-10T06:43:20.484Z,23.7
2018-04-10T06:44:29.912Z,23.76
2018-04-10T06:45:39.342Z,23.76
2018-04-10T06:46:48.500Z,23.7
2018-04-10T06:47:57.965Z,23.69
2018-04-10T06:49:07.406Z,23.69
2018-04-10T06:50:16.310Z,23.72
2018-04-10T06:51:25.510Z,23.69
2018-04-10T06:52:34.935Z,23.68
2018-04-10T06:53:43.829Z,23.72
2018-04-10T06:54:52.734Z,23.76
2018-04-10T06:56:02.399Z,23.63
2018-04-10T06:57:11.843Z,23.7
2018-04-10T06:58:20.747Z,23.75
2018-04-10T06:59:30.169Z,23.7
2018-04-10T07:00:39.573Z,23.68
2018-04-10T07:01:48.728Z,23.69
2018-04-10T07:02:57.888Z,23.75
2018-04-10T07:04:07.041Z,23.7
2018-04-10T07:05:15.679Z,23.73
2018-04-10T07:06:24.582Z,23.76
2018-04-10T07:07:33.999Z,23.69
2018-04-10T07:08:43.157Z,23.63
2018-04-10T07:09:52.306Z,23.66
2018-04-10T07:11:01.496Z,23.73
2018-04-10T07:12:10.406Z,23.73
2018-04-10T07:13:20.181Z,23.7
2018-04-10T07:14:29.672Z,23.69
2018-04-10T07:15:39.344Z,23.72
2018-04-10T07:16:49.024Z,23.68
2018-04-10T07:17:57.925Z,23.68
2018-04-10T07:19:06.828Z,23.72
2018-04-10T07:20:15.988Z,23.76
2018-04-10T07:21:24.891Z,23.73
2018-04-10T07:22:34.042Z,23.76
2018-04-10T07:23:42.992Z,23.73
2018-04-10T07:24:52.168Z,23.76
2018-04-10T07:26:01.566Z,23.68
2018-04-10T07:27:10.733Z,23.68
2018-04-10T07:28:20.435Z,23.75
2018-04-10T07:29:29.585Z,23.76
2018-04-10T07:30:39.268Z,23.76
2018-04-10T07:31:48.414Z,23.73
2018-04-10T07:32:57.590Z,23.76
2018-04-10T07:34:06.854Z,23.76
2018-04-10T07:35:16.306Z,23.69
2018-04-10T07:36:25.456Z,23.66
2018-04-10T07:37:34.889Z,23.76
2018-04-10T07:38:44.310Z,23.75
2018-04-10T07:39:54.355Z,23.79
2018-04-10T07:41:03.772Z,23.75
2018-04-10T07:42:13.199Z,23.68
2018-04-10T07:43:22.108Z,23.69
2018-04-10T07:44:31.010Z,23.76
2018-04-10T07:45:40.169Z,23.63
2018-04-10T07:46:49.619Z,23.68
2018-04-10T07:47:58.536Z,23.75
2018-04-10T07:49:07.708Z,23.78
2018-04-10T07:50:16.342Z,23.76
2018-04-10T07:51:25.273Z,23.78
2018-04-10T07:52:34.946Z,23.73
2018-04-10T07:53:44.119Z,23.66
2018-04-10T07:54:53.305Z,23.7
2018-04-10T07:56:02.459Z,23.69
2018-04-10T07:57:11.632Z,23.76
2018-04-10T07:58:20.783Z,23.72
2018-04-10T07:59:29.678Z,23.76
2018-04-10T08:00:39.106Z,23.73
2018-04-10T08:01:48.657Z,23.72
2018-04-10T08:02:57.550Z,23.73
2018-04-10T08:04:06.468Z,23.73
2018-04-10T08:05:15.381Z,23.72
2018-04-10T08:06:24.565Z,23.79
2018-04-10T08:07:34.236Z,23.73
2018-04-10T08:08:43.645Z,23.76
2018-04-10T08:09:53.072Z,23.68
2018-04-10T08:11:02.252Z,23.68
2018-04-10T08:12:11.421Z,23.73
2018-04-10T08:13:20.596Z,23.68
2018-04-10T08:14:29.767Z,23.78
2018-04-10T08:15:38.919Z,23.66
2018-04-10T08:16:48.844Z,23.78
2018-04-10T08:17:58.020Z,23.6
2018-04-10T08:19:07.188Z,23.68
2018-04-10T08:20:16.385Z,23.69
2018-04-10T08:21:25.546Z,23.61
2018-04-10T08:22:34.729Z,23.69
2018-04-10T08:23:43.971Z,23.66
2018-04-10T08:24:52.877Z,23.73
2018-04-10T08:26:01.798Z,23.73
2018-04-10T08:27:11.394Z,23.78
2018-04-10T08:28:21.064Z,23.78
2018-04-10T08:29:30.528Z,23.72
2018-04-10T08:30:39.430Z,23.76
2018-04-10T08:31:48.587Z,23.7
2018-04-10T08:32:57.765Z,23.7
2018-04-10T08:34:06.404Z,23.76
2018-04-10T08:35:15.582Z,23.69
2018-04-10T08:36:25.238Z,23.73
2018-04-10T08:37:34.384Z,23.72
2018-04-10T08:38:43.801Z,23.65
2018-04-10T08:39:52.438Z,23.8
2018-04-10T08:41:01.341Z,23.65
2018-04-10T08:42:10.759Z,23.75
2018-04-10T08:43:19.931Z,23.7
2018-04-10T08:44:29.084Z,23.75
2018-04-10T08:45:38.033Z,23.78
2018-04-10T08:46:47.177Z,23.73
2018-04-10T08:47:56.091Z,23.75
2018-04-10T08:49:05.262Z,23.78
2018-04-10T08:50:13.921Z,23.75
2018-04-10T08:51:23.355Z,23.63
2018-04-10T08:52:32.548Z,23.68
2018-04-10T08:53:42.225Z,23.7
2018-04-10T08:54:51.188Z,23.75
2018-04-10T08:56:00.345Z,23.73
2018-04-10T08:57:09.780Z,23.69
2018-04-10T08:58:18.432Z,23.66
2018-04-10T08:59:27.865Z,23.8
2018-04-10T09:00:36.790Z,23.7
2018-04-10T09:01:46.237Z,23.73
2018-04-10T09:02:55.669Z,23.72
2018-04-10T09:04:05.086Z,23.7
2018-04-10T09:05:14.260Z,23.73
2018-04-10T09:06:23.504Z,23.75
2018-04-10T09:07:32.410Z,23.73
2018-04-10T09:08:41.595Z,23.75
2018-04-10T09:09:50.772Z,23.73
2018-04-10T09:10:59.989Z,23.7
2018-04-10T09:12:09.432Z,23.75
2018-04-10T09:13:18.332Z,23.73
2018-04-10T09:14:28.012Z,23.7
2018-04-10T09:15:37.416Z,23.69
2018-04-10T09:16:47.080Z,23.78
2018-04-10T09:17:56.787Z,23.72
2018-04-10T09:19:05.957Z,23.69
2018-04-10T09:20:15.104Z,23.84
2018-04-10T09:21:24.781Z,23.75
2018-04-10T09:22:34.184Z,23.69
2018-04-10T09:23:43.608Z,23.72
2018-04-10T09:24:52.763Z,23.76
2018-04-10T09:26:02.697Z,23.79
2018-04-10T09:27:11.641Z,23.69
2018-04-10T09:28:21.046Z,23.72
2018-04-10T09:29:30.456Z,23.83
2018-04-10T09:30:39.874Z,23.78
2018-04-10T09:31:49.052Z,23.68
2018-04-10T09:32:57.974Z,23.78
2018-04-10T09:34:06.880Z,23.72
2018-04-10T09:35:16.049Z,23.8
2018-04-10T09:36:24.941Z,23.69
2018-04-10T09:37:34.135Z,23.78
2018-04-10T09:38:43.560Z,23.73
2018-04-10T09:39:52.716Z,23.76
2018-04-10T09:41:02.137Z,23.7
2018-04-10T09:42:12.080Z,23.72
2018-04-10T09:43:21.227Z,23.78
2018-04-10T09:44:30.661Z,23.78
2018-04-10T09:45:40.379Z,23.8
2018-04-10T09:46:49.539Z,23.69
2018-04-10T09:47:58.948Z,23.75
2018-04-10T09:49:08.156Z,23.78
2018-04-10T09:50:17.905Z,23.75
2018-04-10T09:51:26.809Z,23.78
2018-04-10T09:52:35.961Z,23.84
2018-04-10T09:53:45.105Z,23.7
2018-04-10T09:54:54.516Z,23.76
2018-04-10T09:56:04.005Z,23.69
2018-04-10T09:57:13.405Z,23.87
2018-04-10T09:58:22.564Z,23.83
2018-04-10T09:59:31.994Z,23.72
2018-04-10T10:00:41.411Z,23.84
2018-04-10T10:01:50.576Z,23.84
2018-04-10T10:03:00.008Z,23.79
2018-04-10T10:04:09.166Z,23.79
2018-04-10T10:05:18.324Z,23.73
2018-04-10T10:06:27.824Z,23.88
2018-04-10T10:07:37.307Z,23.73
2018-04-10T10:08:46.287Z,23.79
2018-04-10T10:09:55.263Z,23.8
2018-04-10T10:11:04.459Z,23.78
2018-04-10T10:12:13.637Z,23.69
2018-04-10T10:13:23.096Z,23.87
2018-04-10T10:14:32.558Z,23.9
2018-04-10T10:15:41.972Z,23.79
2018-04-10T10:16:51.429Z,23.76
2018-04-10T10:18:00.656Z,23.87
2018-04-10T10:19:09.889Z,23.75
2018-04-10T10:20:19.320Z,23.76
2018-04-10T10:21:28.268Z,23.72
2018-04-10T10:22:37.261Z,23.87
2018-04-10T10:23:47.246Z,23.76
2018-04-10T10:24:56.430Z,23.73
2018-04-10T10:26:06.228Z,23.75
2018-04-10T10:27:14.877Z,23.76
2018-04-10T10:28:24.052Z,23.78
2018-04-10T10:29:33.540Z,23.76
2018-04-10T10:30:43.074Z,23.75
2018-04-10T10:31:52.316Z,23.72
2018-04-10T10:33:01.883Z,23.8
2018-04-10T10:34:11.449Z,23.78
2018-04-10T10:35:20.751Z,23.79
2018-04-10T10:36:29.925Z,23.7
2018-04-10T10:37:39.193Z,23.78
2018-04-10T10:38:48.415Z,23.87
2018-04-10T10:39:57.593Z,23.72
2018-04-10T10:41:07.050Z,23.79
2018-04-10T10:42:15.701Z,23.83
2018-04-10T10:43:24.649Z,23.76
2018-04-10T10:44:33.930Z,23.72
2018-04-10T10:45:43.630Z,23.83
2018-04-10T10:46:53.083Z,23.75
2018-04-10T10:48:02.858Z,23.88
2018-04-10T10:49:12.293Z,23.72
2018-04-10T10:50:21.724Z,23.75
2018-04-10T10:51:31.154Z,23.79
2018-04-10T10:52:40.073Z,23.78
2018-04-10T10:53:49.574Z,23.75
2018-04-10T10:54:58.822Z,23.78
2018-04-10T10:56:08.282Z,23.84
2018-04-10T10:57:17.697Z,23.72
2018-04-10T10:58:26.584Z,23.76
2018-04-10T10:59:35.804Z,23.75
2018-04-10T11:00:45.637Z,23.72
2018-04-10T11:01:54.493Z,23.87
2018-04-10T11:03:03.441Z,23.85
2018-04-10T11:04:12.398Z,23.78
2018-04-10T11:05:21.611Z,23.84
2018-04-10T11:06:30.867Z,23.75
2018-04-10T11:07:40.445Z,23.76
2018-04-10T11:08:49.398Z,23.72
2018-04-10T11:09:58.391Z,23.78
2018-04-10T11:11:08.201Z,23.76
2018-04-10T11:12:17.170Z,23.79
2018-04-10T11:13:26.110Z,23.72
2018-04-10T11:14:35.605Z,23.72
2018-04-10T11:15:45.046Z,23.8
2018-04-10T11:16:54.774Z,23.78
2018-04-10T11:18:04.479Z,23.84
2018-04-10T11:19:13.427Z,23.8
2018-04-10T11:20:22.693Z,23.8
2018-04-10T11:21:32.435Z,23.73
2018-04-10T11:22:41.646Z,23.76
2018-04-10T11:23:50.627Z,23.8
2018-04-10T11:25:00.128Z,23.7
2018-04-10T11:26:09.415Z,23.87
2018-04-10T11:27:19.140Z,23.73
2018-04-10T11:28:28.108Z,23.72
2018-04-10T11:29:37.350Z,23.79
2018-04-10T11:30:46.289Z,23.69
2018-04-10T11:31:55.713Z,23.83
2018-04-10T11:33:04.869Z,23.8
2018-04-10T11:34:14.038Z,23.79
2018-04-10T11:35:22.952Z,23.87
2018-04-10T11:36:32.412Z,23.79
2018-04-10T11:37:41.605Z,23.76
2018-04-10T11:38:50.781Z,23.8
2018-04-10T11:40:00.518Z,23.8
2018-04-10T11:41:09.729Z,23.72
2018-04-10T11:42:18.401Z,23.75
2018-04-10T11:43:27.854Z,23.75
2018-04-10T11:44:37.048Z,23.75
2018-04-10T11:45:46.284Z,23.79
2018-04-10T11:46:55.211Z,23.76
2018-04-10T11:48:04.926Z,23.75
2018-04-10T11:49:13.969Z,23.72
2018-04-10T11:50:23.134Z,23.84
2018-04-10T11:51:31.835Z,23.78
2018-04-10T11:52:41.040Z,23.8
2018-04-10T11:53:50.268Z,23.78
2018-04-10T11:54:58.935Z,23.79
2018-04-10T11:56:08.448Z,23.76
2018-04-10T11:57:17.380Z,23.73
2018-04-10T11:58:26.588Z,23.76
2018-04-10T11:59:36.034Z,23.88
2018-04-10T12:00:44.995Z,23.78
2018-04-10T12:01:54.444Z,23.79
2018-04-10T12:03:03.723Z,23.75
2018-04-10T12:04:12.680Z,23.73
2018-04-10T12:05:22.409Z,23.72
2018-04-10T12:06:31.847Z,23.78
2018-04-10T12:07:41.353Z,23.75
2018-04-10T12:08:50.780Z,23.78
2018-04-10T12:09:59.949Z,23.75
2018-04-10T12:11:09.369Z,23.75
2018-04-10T12:12:18.553Z,23.73
2018-04-10T12:13:27.705Z,23.72
2018-04-10T12:14:37.325Z,23.69
2018-04-10T12:15:46.753Z,23.65
2018-04-10T12:16:55.901Z,23.87
2018-04-10T12:18:05.061Z,23.79
2018-04-10T12:19:14.225Z,23.68
2018-04-10T12:20:23.921Z,23.76
2018-04-10T12:21:33.382Z,23.69
2018-04-10T12:22:42.296Z,23.8
2018-04-10T12:23:51.248Z,23.8
2018-04-10T12:24:59.922Z,23.78
2018-04-10T12:26:08.841Z,23.72
2018-04-10T12:27:18.011Z,23.69
2018-04-10T12:28:27.218Z,23.69
2018-04-10T12:29:36.410Z,23.84
2018-04-10T12:30:45.712Z,23.75
2018-04-10T12:31:54.989Z,23.84
2018-04-10T12:33:03.905Z,23.83
2018-04-10T12:34:13.096Z,23.75
2018-04-10T12:35:22.280Z,23.78
2018-04-10T12:36:31.276Z,23.87
2018-04-10T12:37:41.068Z,23.73
2018-04-10T12:38:50.838Z,23.73
2018-04-10T12:40:00.530Z,23.83
2018-04-10T12:41:09.719Z,23.78
2018-04-10T12:42:18.652Z,23.73
2018-04-10T12:43:27.577Z,23.75
2018-04-10T12:44:36.789Z,23.8
2018-04-10T12:45:45.500Z,23.8
2018-04-10T12:46:54.143Z,23.72
2018-04-10T12:48:03.294Z,23.83
2018-04-10T12:49:12.698Z,23.76
2018-04-10T12:50:21.851Z,23.76
2018-04-10T12:51:31.074Z,23.76
2018-04-10T12:52:40.583Z,23.85
2018-04-10T12:53:49.786Z,23.83
2018-04-10T12:54:58.727Z,23.83
2018-04-10T12:56:07.690Z,23.69
2018-04-10T12:57:16.364Z,23.83
2018-04-10T12:58:25.819Z,23.85
2018-04-10T12:59:35.306Z,23.73
2018-04-10T13:00:44.778Z,23.76
2018-04-10T13:01:54.242Z,23.69
2018-04-10T13:03:03.733Z,23.83
2018-04-10T13:04:13.231Z,23.8
2018-04-10T13:05:22.447Z,23.83
2018-04-10T13:06:31.653Z,23.79
2018-04-10T13:07:40.914Z,23.83
2018-04-10T13:08:50.386Z,23.78
2018-04-10T13:09:59.591Z,23.8
2018-04-10T13:11:08.653Z,23.83
2018-04-10T13:12:17.587Z,23.84
2018-04-10T13:13:26.890Z,23.83
2018-04-10T13:14:35.828Z,23.88
2018-04-10T13:15:45.536Z,23.83
2018-04-10T13:16:54.228Z,23.85
2018-04-10T13:18:03.163Z,23.84
2018-04-10T13:19:12.677Z,23.9
2018-04-10T13:20:22.151Z,23.87
2018-04-10T13:21:31.326Z,23.9
2018-04-10T13:22:40.496Z,23.84
2018-04-10T13:23:49.452Z,23.87
2018-04-10T13:24:58.977Z,23.84
2018-04-10T13:26:08.253Z,23.83
2018-04-10T13:27:17.795Z,23.84
2018-04-10T13:28:27.266Z,23.87
2018-04-10T13:29:36.270Z,23.84
2018-04-10T13:30:45.491Z,23.88
2018-04-10T13:31:54.260Z,23.87
2018-04-10T13:33:02.961Z,23.9
2018-04-10T13:34:12.162Z,23.91
2018-04-10T13:35:21.745Z,23.87
2018-04-10T13:36:31.210Z,23.88
2018-04-10T13:37:40.126Z,23.9
2018-04-10T13:38:49.590Z,23.88
2018-04-10T13:39:58.768Z,23.88
2018-04-10T13:41:08.222Z,24
2018-04-10T13:42:17.225Z,23.94
2018-04-10T13:43:26.514Z,23.88
2018-04-10T13:44:35.808Z,23.97
2018-04-10T13:45:45.307Z,23.95
2018-04-10T13:46:54.511Z,23.94
2018-04-10T13:48:03.458Z,23.91
2018-04-10T13:49:12.680Z,23.94
2018-04-10T13:50:21.650Z,24.05
2018-04-10T13:51:30.609Z,23.94
2018-04-10T13:52:39.555Z,24.06
2018-04-10T13:53:48.792Z,24.02
2018-04-10T13:54:57.955Z,24.05
2018-04-10T13:56:07.411Z,24.05
2018-04-10T13:57:16.598Z,24.03
2018-04-10T13:58:25.865Z,24.09
2018-04-10T13:59:35.656Z,24.09
2018-04-10T14:00:45.205Z,24
2018-04-10T14:01:54.209Z,23.94
2018-04-10T14:03:03.149Z,23.94
2018-04-10T14:04:12.343Z,24
2018-04-10T14:05:21.556Z,23.97
2018-04-10T14:06:31.249Z,24.06
2018-04-10T14:07:40.434Z,23.93
2018-04-10T14:08:49.392Z,23.93
2018-04-10T14:09:58.850Z,23.94
2018-04-10T14:11:08.046Z,23.91
2018-04-10T14:12:17.294Z,24.05
2018-04-10T14:13:26.541Z,23.91
2018-04-10T14:14:35.484Z,23.93
2018-04-10T14:15:44.704Z,23.98
2018-04-10T14:16:53.912Z,23.98
2018-04-10T14:18:03.416Z,23.95
2018-04-10T14:19:12.385Z,23.98
2018-04-10T14:20:21.646Z,23.98
2018-04-10T14:21:30.865Z,23.98
2018-04-10T14:22:40.044Z,23.94
2018-04-10T14:23:49.277Z,23.98
2018-04-10T14:24:58.442Z,23.95
2018-04-10T14:26:07.658Z,23.95
2018-04-10T14:27:17.380Z,23.88
2018-04-10T14:28:26.903Z,23.95
2018-04-10T14:29:35.856Z,23.91
2018-04-10T14:30:45.031Z,23.94
2018-04-10T14:31:54.014Z,23.87
2018-04-10T14:33:03.218Z,23.94
2018-04-10T14:34:12.407Z,23.94
2018-04-10T14:35:21.350Z,23.85
2018-04-10T14:36:30.559Z,23.91
2018-04-10T14:37:40.020Z,23.9
2018-04-10T14:38:49.007Z,23.9
2018-04-10T14:39:57.741Z,23.95
2018-04-10T14:41:06.933Z,23.94
2018-04-10T14:42:16.159Z,23.95
2018-04-10T14:43:26.240Z,23.87
2018-04-10T14:44:35.698Z,23.94
2018-04-10T14:45:44.380Z,23.95
2018-04-10T14:46:53.621Z,23.9
2018-04-10T14:48:02.891Z,23.85
2018-04-10T14:49:11.827Z,23.91
2018-04-10T14:50:21.108Z,23.91
2018-04-10T14:51:30.851Z,23.91
2018-04-10T14:52:40.550Z,23.88
2018-04-10T14:53:50.233Z,24
2018-04-10T14:54:59.402Z,23.93
2018-04-10T14:56:08.814Z,23.9